createdAt,value
2022-12-08T00:01:26.705Z,27.35
2022-12-08T00:03:55.417Z,27.60
2022-12-08T00:06:59.439Z,31.63
2022-12-08T00:09:39.018Z,32.25
2022-12-08T00:12:16.639Z,28.55
2022-12-08T00:14:46.433Z,33.13
2022-12-08T00:17:16.095Z,32.70
2022-12-08T00:19:44.292Z,34.40
2022-12-08T00:22:15.331Z,33.40
2022-12-08T00:24:45.668Z,38.10
2022-12-08T00:27:15.709Z,34.75
2022-12-08T00:29:46.277Z,33.55
2022-12-08T00:32:13.985Z,32.38
2022-12-08T00:34:41.386Z,33.22
2022-12-08T00:37:08.666Z,34.60
2022-12-08T00:39:35.918Z,35.85
2022-12-08T00:42:12.068Z,33.90
2022-12-08T00:44:43.553Z,33.47
2022-12-08T00:47:11.864Z,32.60
2022-12-08T00:49:39.217Z,32.33
2022-12-08T00:52:07.331Z,31.77
2022-12-08T00:54:34.838Z,32.25
2022-12-08T00:57:02.074Z,34.75
2022-12-08T00:59:29.360Z,32.10
2022-12-08T01:01:56.601Z,30.70
2022-12-08T01:04:24.649Z,35.55
2022-12-08T01:06:52.979Z,34.58
2022-12-08T01:09:20.262Z,32.30
2022-12-08T01:11:47.772Z,31.48
2022-12-08T01:14:15.595Z,35.72
2022-12-08T01:16:43.565Z,33.20
2022-12-08T01:19:13.062Z,32.08
2022-12-08T01:21:41.505Z,32.97
2022-12-08T01:24:12.524Z,34.08
2022-12-08T01:26:40.142Z,33.70
2022-12-08T01:29:07.576Z,32.38
2022-12-08T01:31:35.043Z,35.65
2022-12-08T01:34:02.494Z,33.05
2022-12-08T01:36:32.283Z,36.67
2022-12-08T01:39:02.245Z,37.83
2022-12-08T01:41:32.206Z,33.40
2022-12-08T01:44:04.563Z,33.63
2022-12-08T01:46:33.844Z,36.80
2022-12-08T01:49:26.811Z,37.38
2022-12-08T01:52:13.375Z,34.33
2022-12-08T01:54:47.544Z,34.15
2022-12-08T01:57:20.622Z,35.55
2022-12-08T01:59:53.509Z,34.90
2022-12-08T02:02:21.016Z,34.92
2022-12-08T02:04:48.314Z,34.75
2022-12-08T02:07:17.941Z,37.85
2022-12-08T02:09:46.396Z,35.30
2022-12-08T02:12:13.963Z,37.67
2022-12-08T02:14:41.296Z,33.67
2022-12-08T02:17:48.643Z,34.08
2022-12-08T02:20:41.456Z,40.10
2022-12-08T02:23:33.721Z,35.75
2022-12-08T02:26:14.141Z,39.72
2022-12-08T02:29:15.529Z,35.63
2022-12-08T02:31:45.962Z,32.37
2022-12-08T02:34:25.111Z,37.03
2022-12-08T02:37:16.982Z,34.45
2022-12-08T02:40:00.182Z,31.73
2022-12-08T02:42:37.394Z,32.95
2022-12-08T02:45:19.559Z,33.17
2022-12-08T02:47:47.393Z,34.17
2022-12-08T02:50:15.742Z,34.38
2022-12-08T02:52:47.901Z,35.25
2022-12-08T02:55:28.052Z,31.65
2022-12-08T02:58:13.242Z,32.72
2022-12-08T03:01:19.102Z,33.20
2022-12-08T03:04:10.134Z,31.00
2022-12-08T03:06:55.986Z,29.35
2022-12-08T03:09:29.302Z,33.13
2022-12-08T03:12:04.092Z,31.27
2022-12-08T03:14:34.070Z,33.40
2022-12-08T03:17:01.917Z,31.65
2022-12-08T03:19:34.520Z,29.95
2022-12-08T03:22:04.998Z,31.42
2022-12-08T03:24:41.319Z,29.33
2022-12-08T03:27:12.511Z,27.33
2022-12-08T03:29:40.045Z,25.42
2022-12-08T03:32:33.483Z,25.85
2022-12-08T03:35:04.647Z,28.60
2022-12-08T03:37:34.442Z,25.45
2022-12-08T03:40:02.159Z,25.48
2022-12-08T03:42:30.220Z,25.95
2022-12-08T03:44:57.464Z,27.35
2022-12-08T03:47:24.704Z,27.58
2022-12-08T03:49:51.934Z,24.77
2022-12-08T03:52:19.167Z,26.77
2022-12-08T03:54:46.632Z,25.58
2022-12-08T03:57:14.231Z,27.30
2022-12-08T03:59:41.506Z,24.13
2022-12-08T04:02:08.752Z,22.98
2022-12-08T04:04:36.118Z,30.48
2022-12-08T04:07:03.391Z,26.85
2022-12-08T04:09:30.742Z,29.83
2022-12-08T04:11:57.967Z,26.80
2022-12-08T04:14:25.323Z,27.65
2022-12-08T04:16:52.589Z,28.08
2022-12-08T04:19:19.906Z,26.67
2022-12-08T04:21:47.143Z,29.30
2022-12-08T04:24:14.419Z,29.13
2022-12-08T04:26:41.855Z,28.90
2022-12-08T04:29:09.188Z,30.38
2022-12-08T04:31:36.473Z,28.58
2022-12-08T04:34:03.831Z,29.52
2022-12-08T04:36:31.045Z,32.83
2022-12-08T04:38:58.357Z,29.15
2022-12-08T04:41:25.558Z,31.90
2022-12-08T04:43:52.892Z,32.30
2022-12-08T04:46:20.167Z,27.25
2022-12-08T04:48:47.485Z,28.70
2022-12-08T04:51:17.498Z,29.13
2022-12-08T04:53:46.896Z,27.25
2022-12-08T04:56:16.628Z,32.28
2022-12-08T04:58:44.085Z,29.40
2022-12-08T05:01:11.804Z,28.73
2022-12-08T05:03:39.195Z,27.77
2022-12-08T05:06:07.092Z,31.25
2022-12-08T05:08:34.423Z,30.60
2022-12-08T05:11:06.673Z,30.60
2022-12-08T05:13:33.995Z,31.40
2022-12-08T05:16:06.364Z,33.08
2022-12-08T05:18:34.723Z,31.15
2022-12-08T05:21:02.152Z,28.98
2022-12-08T05:23:29.658Z,30.15
2022-12-08T05:25:57.060Z,31.75
2022-12-08T05:28:41.801Z,33.22
2022-12-08T05:31:11.024Z,31.42
2022-12-08T05:33:38.462Z,30.17
2022-12-08T05:36:06.112Z,29.75
2022-12-08T05:38:33.490Z,31.20
2022-12-08T05:41:00.894Z,32.47
2022-12-08T05:43:28.204Z,32.80
2022-12-08T05:45:55.557Z,33.08
2022-12-08T05:48:22.844Z,33.88
2022-12-08T05:50:51.038Z,35.85
2022-12-08T05:53:20.233Z,35.05
2022-12-08T05:55:47.602Z,31.08
2022-12-08T05:58:18.019Z,33.05
2022-12-08T06:00:46.710Z,35.53
2022-12-08T06:03:15.694Z,35.70
2022-12-08T06:05:44.455Z,33.60
2022-12-08T06:08:12.553Z,32.45
2022-12-08T06:10:41.689Z,33.08
2022-12-08T06:13:09.232Z,32.92
2022-12-08T06:15:37.717Z,33.33
2022-12-08T06:18:05.687Z,31.27
2022-12-08T06:20:33.088Z,33.25
2022-12-08T06:23:00.431Z,33.20
2022-12-08T06:25:27.858Z,34.95
2022-12-08T06:27:55.038Z,32.17
2022-12-08T06:30:22.462Z,36.22
2022-12-08T06:32:49.724Z,32.70
2022-12-08T06:35:17.133Z,31.85
2022-12-08T06:37:44.331Z,31.38
2022-12-08T06:40:12.475Z,30.58
2022-12-08T06:42:46.838Z,33.17
2022-12-08T06:45:18.527Z,34.65
2022-12-08T06:47:45.918Z,31.45
2022-12-08T06:50:14.364Z,26.95
2022-12-08T06:52:54.146Z,32.80
2022-12-08T06:55:57.278Z,33.30
2022-12-08T06:58:14.051Z,29.48
2022-12-08T07:00:41.883Z,32.60
2022-12-08T07:03:10.667Z,32.88
2022-12-08T07:05:38.918Z,31.98
2022-12-08T07:08:08.566Z,35.05
2022-12-08T07:10:36.188Z,32.08
2022-12-08T07:13:07.637Z,37.50
2022-12-08T07:15:41.078Z,39.20
2022-12-08T07:18:08.372Z,35.83
2022-12-08T07:20:35.664Z,31.65
2022-12-08T07:23:03.023Z,34.35
2022-12-08T07:25:30.301Z,29.85
2022-12-08T07:27:57.641Z,32.45
2022-12-08T07:30:25.218Z,32.22
2022-12-08T07:32:53.031Z,39.58
2022-12-08T07:35:21.159Z,37.67
2022-12-08T07:37:49.738Z,30.58
2022-12-08T07:40:17.576Z,35.03
2022-12-08T07:42:46.222Z,33.70
2022-12-08T07:45:13.971Z,30.05
2022-12-08T07:47:41.377Z,34.95
2022-12-08T07:50:12.411Z,29.88
2022-12-08T07:52:40.365Z,32.53
2022-12-08T07:55:08.300Z,37.90
2022-12-08T07:57:35.805Z,29.83
2022-12-08T08:00:05.593Z,32.30
2022-12-08T08:02:39.329Z,31.23
2022-12-08T08:05:07.526Z,31.95
2022-12-08T08:07:35.419Z,31.38
2022-12-08T08:10:03.276Z,28.90
2022-12-08T08:12:32.594Z,32.40
2022-12-08T08:15:02.123Z,29.83
2022-12-08T08:17:30.362Z,28.48
2022-12-08T08:19:58.189Z,30.30
2022-12-08T08:22:27.127Z,32.60
2022-12-08T08:24:54.910Z,29.80
2022-12-08T08:27:23.114Z,31.35
2022-12-08T08:29:51.077Z,28.08
2022-12-08T08:32:19.074Z,30.13
2022-12-08T08:34:46.605Z,27.17
2022-12-08T08:37:14.147Z,32.60
2022-12-08T08:39:43.278Z,30.02
2022-12-08T08:42:10.826Z,40.15
2022-12-08T08:44:39.186Z,29.20
2022-12-08T08:47:07.065Z,29.23
2022-12-08T08:49:34.689Z,29.70
2022-12-08T08:52:03.103Z,27.55
2022-12-08T08:54:31.536Z,30.23
2022-12-08T08:57:00.758Z,31.27
2022-12-08T08:59:28.799Z,31.25
2022-12-08T09:01:56.311Z,30.42
2022-12-08T09:04:23.746Z,30.73
2022-12-08T09:06:51.201Z,27.27
2022-12-08T09:09:18.540Z,34.55
2022-12-08T09:11:45.792Z,29.00
2022-12-08T09:14:15.575Z,27.95
2022-12-08T09:16:43.146Z,29.85
2022-12-08T09:19:10.840Z,26.40
2022-12-08T09:21:40.291Z,27.58
2022-12-08T09:24:15.895Z,27.42
2022-12-08T09:26:45.443Z,35.95
2022-12-08T09:29:14.853Z,28.83
2022-12-08T09:31:42.602Z,28.25
2022-12-08T09:34:12.395Z,26.45
2022-12-08T09:36:40.424Z,27.02
2022-12-08T09:39:08.134Z,28.30
2022-12-08T09:41:50.316Z,27.40
2022-12-08T09:44:48.690Z,26.13
2022-12-08T09:47:33.791Z,26.40
2022-12-08T09:50:21.789Z,26.77
2022-12-08T09:53:04.446Z,25.88
2022-12-08T09:55:54.196Z,28.80
2022-12-08T09:58:36.909Z,25.83
2022-12-08T10:01:07.576Z,28.63
2022-12-08T10:03:35.038Z,28.95
2022-12-08T10:06:25.012Z,25.40
2022-12-08T10:09:05.405Z,23.83
2022-12-08T10:11:50.501Z,24.70
2022-12-08T10:14:23.505Z,25.75
2022-12-08T10:16:56.288Z,22.88
2022-12-08T10:19:27.159Z,23.50
2022-12-08T10:21:58.107Z,23.23
2022-12-08T10:24:43.447Z,29.33
2022-12-08T10:27:12.883Z,22.75
2022-12-08T10:29:41.121Z,24.95
2022-12-08T10:32:20.107Z,24.00
2022-12-08T10:35:09.317Z,22.70
2022-12-08T10:37:36.719Z,21.73
2022-12-08T10:40:22.079Z,22.58
2022-12-08T10:42:52.541Z,20.02
2022-12-08T10:45:25.520Z,22.85
2022-12-08T10:48:03.936Z,24.63
2022-12-08T10:50:31.497Z,21.05
2022-12-08T10:53:08.115Z,18.35
2022-12-08T10:55:44.931Z,17.83
2022-12-08T10:58:29.396Z,19.25
2022-12-08T11:01:01.854Z,18.48
2022-12-08T11:03:33.410Z,20.33
2022-12-08T11:06:11.111Z,24.63
2022-12-08T11:08:54.238Z,20.15
2022-12-08T11:11:27.696Z,21.13
2022-12-08T11:13:56.931Z,20.60
2022-12-08T11:16:24.556Z,22.58
2022-12-08T11:18:58.732Z,17.50
2022-12-08T11:21:37.258Z,21.42
2022-12-08T11:24:22.125Z,17.92
2022-12-08T11:26:54.560Z,27.35
2022-12-08T11:29:22.238Z,17.60
2022-12-08T11:32:02.179Z,16.55
2022-12-08T11:34:35.576Z,21.60
2022-12-08T11:37:06.484Z,18.55
2022-12-08T11:39:36.588Z,17.73
2022-12-08T11:42:05.498Z,19.58
2022-12-08T11:44:32.907Z,18.48
2022-12-08T11:47:15.217Z,18.80
2022-12-08T11:49:43.601Z,18.25
2022-12-08T11:52:33.967Z,20.35
2022-12-08T11:55:25.439Z,16.85
2022-12-08T11:57:55.064Z,14.88
2022-12-08T12:00:22.474Z,18.02
2022-12-08T12:02:59.787Z,19.73
2022-12-08T12:08:34.611Z,16.58
2022-12-08T12:11:51.788Z,19.02
2022-12-08T12:14:43.080Z,16.30
2022-12-08T12:17:23.629Z,18.85
2022-12-08T12:19:52.536Z,18.15
2022-12-08T12:22:22.949Z,18.98
2022-12-08T12:24:52.223Z,15.05
2022-12-08T12:27:29.245Z,18.63
2022-12-08T12:30:00.754Z,18.08
2022-12-08T12:32:43.475Z,18.88
2022-12-08T12:35:24.005Z,16.15
2022-12-08T12:38:29.143Z,16.65
2022-12-08T12:41:03.255Z,18.17
2022-12-08T12:43:34.601Z,18.20
2022-12-08T12:46:24.039Z,15.82
2022-12-08T12:48:52.846Z,17.35
2022-12-08T12:51:41.701Z,14.10
2022-12-08T12:54:29.882Z,17.25
2022-12-08T12:57:09.323Z,17.27
2022-12-08T12:59:44.177Z,16.83
2022-12-08T13:02:26.434Z,13.93
2022-12-08T13:05:10.013Z,15.07
2022-12-08T13:07:55.890Z,14.98
2022-12-08T13:10:40.326Z,14.57
2022-12-08T13:13:10.759Z,16.38
2022-12-08T13:16:26.321Z,17.25
2022-12-08T13:18:59.210Z,16.52
2022-12-08T13:21:36.759Z,14.75
2022-12-08T13:24:17.972Z,16.35
2022-12-08T13:26:51.316Z,18.97
2022-12-08T13:29:23.858Z,18.45
2022-12-08T13:31:56.599Z,17.92
2022-12-08T13:34:39.560Z,15.93
2022-12-08T13:37:13.542Z,19.10
2022-12-08T13:39:40.984Z,21.98
2022-12-08T13:42:20.487Z,20.40
2022-12-08T13:45:19.087Z,16.70
2022-12-08T13:47:54.359Z,17.88
2022-12-08T13:59:19.947Z,15.48
2022-12-08T14:01:49.853Z,16.17
2022-12-08T14:04:42.462Z,15.90
2022-12-08T14:07:12.304Z,17.17
2022-12-08T14:09:41.286Z,14.65
2022-12-08T14:12:26.995Z,15.43
2022-12-08T14:15:14.961Z,17.17
2022-12-08T14:17:52.567Z,16.50
2022-12-08T14:20:27.460Z,15.18
2022-12-08T14:22:55.280Z,15.27
2022-12-08T14:25:24.101Z,17.70
2022-12-08T14:27:59.313Z,15.55
2022-12-08T14:30:30.771Z,18.60
2022-12-08T14:33:00.595Z,13.98
2022-12-08T14:35:33.795Z,16.25
2022-12-08T14:38:14.860Z,15.43
2022-12-08T14:40:59.758Z,15.77
2022-12-08T14:43:29.571Z,13.93
2022-12-08T14:46:03.052Z,14.15
2022-12-08T14:48:36.520Z,15.18
2022-12-08T14:51:03.701Z,14.60
2022-12-08T14:53:52.860Z,15.43
2022-12-08T14:56:24.750Z,14.45
2022-12-08T14:59:17.596Z,14.27
2022-12-08T15:01:46.465Z,15.77
2022-12-08T15:04:13.955Z,12.05
2022-12-08T15:06:53.178Z,13.82
2022-12-08T15:09:34.476Z,14.48
2022-12-08T15:12:24.701Z,15.13
2022-12-08T15:15:22.446Z,14.18
2022-12-08T15:17:52.279Z,14.45
2022-12-08T15:20:45.764Z,13.50
2022-12-08T15:23:31.486Z,21.88
2022-12-08T15:25:59.853Z,13.55
2022-12-08T15:28:30.474Z,13.70
2022-12-08T15:30:59.046Z,14.75
2022-12-08T15:33:27.526Z,15.85
2022-12-08T15:35:54.860Z,13.43
2022-12-08T15:38:29.552Z,12.98
2022-12-08T15:41:01.175Z,14.95
2022-12-08T15:43:30.607Z,15.27
2022-12-08T15:46:00.109Z,13.38
2022-12-08T15:48:30.033Z,14.45
2022-12-08T15:50:57.626Z,12.63
2022-12-08T15:53:24.905Z,13.43
2022-12-08T15:58:56.520Z,13.80
2022-12-08T16:01:25.888Z,15.10
2022-12-08T16:09:39.217Z,15.05
2022-12-08T16:15:59.811Z,13.73
2022-12-08T16:18:28.591Z,12.90
2022-12-08T16:23:44.980Z,13.63
2022-12-08T16:29:06.325Z,13.20
2022-12-08T16:31:33.906Z,16.17
2022-12-08T16:34:01.474Z,12.38
2022-12-08T16:36:28.740Z,13.02
2022-12-08T16:38:56.056Z,12.60
2022-12-08T16:41:41.802Z,13.77
2022-12-08T16:44:09.216Z,14.15
2022-12-08T16:46:37.119Z,15.00
2022-12-08T16:49:04.918Z,13.35
2022-12-08T16:51:32.152Z,13.38
2022-12-08T16:53:59.457Z,15.85
2022-12-08T16:56:32.784Z,14.05
2022-12-08T16:59:01.690Z,16.60
2022-12-08T17:01:29.104Z,13.80
2022-12-08T17:04:22.953Z,12.52
2022-12-08T17:06:43.895Z,14.35
2022-12-08T17:09:11.211Z,14.02
2022-12-08T17:11:43.058Z,14.80
2022-12-08T17:14:13.075Z,16.23
2022-12-08T17:16:41.389Z,14.88
2022-12-08T17:19:09.187Z,20.10
2022-12-08T17:21:36.513Z,17.33
2022-12-08T17:24:04.566Z,20.60
2022-12-08T17:26:31.882Z,19.92
2022-12-08T17:29:01.240Z,15.63
2022-12-08T17:31:31.289Z,18.20
2022-12-08T17:34:01.344Z,18.88
2022-12-08T17:36:29.012Z,21.05
2022-12-08T17:38:57.220Z,21.27
2022-12-08T17:41:24.530Z,15.40
2022-12-08T17:43:52.171Z,17.88
2022-12-08T17:46:20.430Z,18.60
2022-12-08T17:48:47.800Z,18.77
2022-12-08T17:51:15.827Z,15.57
2022-12-08T17:53:43.078Z,16.38
2022-12-08T17:56:19.804Z,18.73
2022-12-08T17:58:52.890Z,16.13
2022-12-08T18:01:22.933Z,19.20
2022-12-08T18:03:50.365Z,20.63
2022-12-08T18:06:17.883Z,15.25
2022-12-08T18:08:45.556Z,15.80
2022-12-08T18:11:18.646Z,18.38
2022-12-08T18:13:47.105Z,17.67
2022-12-08T18:16:19.491Z,20.52
2022-12-08T18:18:47.647Z,18.38
2022-12-08T18:21:22.869Z,20.65
2022-12-08T18:23:50.904Z,23.05
2022-12-08T18:26:18.573Z,31.85
2022-12-08T18:28:45.970Z,26.73
2022-12-08T18:31:16.427Z,21.13
2022-12-08T18:33:45.609Z,20.20
2022-12-08T18:36:15.889Z,24.30
2022-12-08T18:38:43.913Z,16.92
2022-12-08T18:41:17.697Z,18.83
2022-12-08T18:43:45.334Z,17.67
2022-12-08T18:46:14.841Z,22.00
2022-12-08T18:48:44.989Z,21.05
2022-12-08T18:51:14.017Z,25.27
2022-12-08T18:53:42.053Z,24.38
2022-12-08T18:56:20.047Z,24.73
2022-12-08T18:58:47.222Z,23.25
2022-12-08T19:01:17.771Z,21.88
2022-12-08T19:04:04.683Z,21.85
2022-12-08T19:06:32.778Z,22.30
2022-12-08T19:09:00.087Z,29.83
2022-12-08T19:11:29.276Z,29.88
2022-12-08T19:13:56.813Z,25.80
2022-12-08T19:16:24.281Z,25.60
2022-12-08T19:18:51.751Z,24.63
2022-12-08T19:21:19.869Z,22.67
2022-12-08T19:23:47.710Z,26.48
2022-12-08T19:26:15.029Z,19.45
2022-12-08T19:28:42.365Z,20.42
2022-12-08T19:31:10.769Z,20.63
2022-12-08T19:33:39.162Z,23.13
2022-12-08T19:36:14.027Z,22.00
2022-12-08T19:39:00.174Z,20.30
2022-12-08T19:41:46.650Z,20.50
2022-12-08T19:44:32.989Z,26.05
2022-12-08T19:47:03.909Z,25.42
2022-12-08T19:49:32.085Z,18.27
2022-12-08T19:52:00.132Z,28.73
2022-12-08T19:54:27.840Z,26.95
2022-12-08T19:56:55.241Z,20.08
2022-12-08T19:59:26.409Z,25.45
2022-12-08T20:01:58.903Z,25.38
2022-12-08T20:04:28.548Z,22.05
2022-12-08T20:06:56.844Z,22.17
2022-12-08T20:09:24.601Z,21.88
2022-12-08T20:11:54.803Z,25.38
2022-12-08T20:14:23.375Z,31.35
2022-12-08T20:16:51.407Z,25.73
2022-12-08T20:19:18.806Z,29.30
2022-12-08T20:21:46.134Z,22.50
2022-12-08T20:24:13.501Z,20.85
2022-12-08T20:26:40.880Z,21.25
2022-12-08T20:29:08.418Z,21.00
2022-12-08T20:31:35.846Z,19.67
2022-12-08T20:34:03.674Z,18.10
2022-12-08T20:36:31.599Z,20.48
2022-12-08T20:38:58.941Z,20.95
2022-12-08T20:41:26.289Z,24.17
2022-12-08T20:43:53.990Z,22.00
2022-12-08T20:46:24.357Z,23.77
2022-12-08T20:48:51.888Z,21.33
2022-12-08T20:51:20.057Z,25.95
2022-12-08T20:53:50.988Z,24.02
2022-12-08T20:56:21.058Z,25.20
2022-12-08T20:58:49.524Z,24.50
2022-12-08T21:01:22.526Z,23.90
2022-12-08T21:03:51.112Z,20.40
2022-12-08T21:06:27.039Z,23.65
2022-12-08T21:08:54.985Z,20.13
2022-12-08T21:11:23.342Z,22.08
2022-12-08T21:13:50.632Z,23.08
2022-12-08T21:16:18.144Z,23.38
2022-12-08T21:18:45.818Z,22.65
2022-12-08T21:21:15.147Z,21.65
2022-12-08T21:23:43.488Z,24.15
2022-12-08T21:26:13.100Z,22.55
2022-12-08T21:28:41.004Z,20.45
2022-12-08T21:31:13.562Z,24.90
2022-12-08T21:33:41.235Z,19.83
2022-12-08T21:36:12.716Z,22.88
2022-12-08T21:38:40.940Z,24.67
2022-12-08T21:41:13.569Z,21.70
2022-12-08T21:43:41.455Z,24.27
2022-12-08T21:46:16.830Z,23.70
2022-12-08T21:48:44.589Z,26.88
2022-12-08T21:51:11.994Z,23.35
2022-12-08T21:53:39.312Z,25.55
2022-12-08T21:56:10.272Z,26.08
2022-12-08T21:58:39.832Z,25.60
2022-12-08T22:01:08.463Z,28.25
2022-12-08T22:03:37.286Z,30.70
2022-12-08T22:06:06.738Z,22.70
2022-12-08T22:08:34.905Z,24.00
2022-12-08T22:11:02.834Z,24.88
2022-12-08T22:13:30.339Z,27.90
2022-12-08T22:15:59.555Z,24.58
2022-12-08T22:18:27.592Z,32.15
2022-12-08T22:20:55.045Z,24.15
2022-12-08T22:23:22.847Z,26.85
2022-12-08T22:26:01.324Z,29.10
2022-12-08T22:28:32.294Z,29.88
2022-12-08T22:31:00.193Z,27.13
2022-12-08T22:33:30.796Z,26.58
2022-12-08T22:36:04.794Z,25.23
2022-12-08T22:38:35.821Z,23.60
2022-12-08T22:41:05.599Z,28.95
2022-12-08T22:43:36.198Z,29.17
2022-12-08T22:46:13.026Z,32.85
2022-12-08T22:48:40.680Z,29.73
2022-12-08T22:51:08.679Z,28.02
2022-12-08T22:53:36.527Z,26.75
2022-12-08T22:56:09.783Z,26.52
2022-12-08T22:58:38.766Z,28.17
2022-12-08T23:01:06.830Z,27.08
2022-12-08T23:03:34.955Z,26.80
2022-12-08T23:06:02.879Z,25.05
2022-12-08T23:08:30.357Z,23.83
2022-12-08T23:10:58.939Z,28.15
2022-12-08T23:13:26.966Z,27.35
2022-12-08T23:15:54.405Z,28.92
2022-12-08T23:18:21.668Z,31.27
2022-12-08T23:20:48.975Z,30.17
2022-12-08T23:23:16.534Z,28.98
2022-12-08T23:25:44.021Z,29.20
2022-12-08T23:28:11.762Z,32.38
2022-12-08T23:30:42.261Z,34.15
2022-12-08T23:33:09.787Z,30.52
2022-12-08T23:35:37.080Z,31.90
2022-12-08T23:38:05.068Z,32.95
2022-12-08T23:40:32.397Z,38.33
2022-12-08T23:42:59.714Z,32.63
2022-12-08T23:45:27.073Z,32.83
2022-12-08T23:47:54.607Z,31.35
2022-12-08T23:50:21.992Z,36.15
2022-12-08T23:52:49.517Z,33.50
2022-12-08T23:55:16.761Z,46.92
2022-12-08T23:57:44.105Z,32.53
